Irving, NY (14081)

10:19 PM EDT en Septiembre 22, 2014 (GMT -0400)
KNYIRVIN2 | Change Station
CLOSE
Current Station
Estación meteorológica personal
Location: Irving, NY
Altura: 587 ft
Estaciones meteorológicas cercanas

Alt 587 ft 42.56 °N, 79.14 °W | Updated 4 seconds ago

Despejado
Despejado
54.5 ° F
Sensación térmica 54.5 ° F
N
0.0
Viento Variable Viento desde Norte
Gusts 1.3 mph

Hoy
Alta -- | Baja -- ° F
--% Posibilidad de precipitaciones
Ayer
Alta -- | Baja -- ° F
Precip. -- pul
7:03 AM 7:13 PM
Creciente menguante, 1% visible
Presión 30.23 pul
Visibilidad 10.0 Millas
Nubes Baja 3300 ft
Punto de rocío 44 ° F
Humedad 67%
Precipitaciones 0.04 pul
Espesor de la nieve No disponible.
UV 0 de una escala de 12
Polen 3.30 de una escala de 12
Ozono Buena
PM2.5 Buena
Flu Activity No disponible.
METAR KDKK 230153Z AUTO 28011G17KT 10SM FEW033 12/06 A3022 RMK AO2 SLP235 T01220056

More Conditions Fewer Conditions

Presión 30.23 pul
Visibilidad 10.0 Millas
Nubes Baja 3300 ft
Punto de rocío 44 ° F
Humedad 67%
Precipitaciones 0.04 pul
Espesor de la nieve No disponible.
UV 0 de una escala de 12
Polen 3.30 de una escala de 12
Ozono Buena
PM2.5 Buena
Flu Activity No disponible.
METAR KDKK 230153Z AUTO 28011G17KT 10SM FEW033 12/06 A3022 RMK AO2 SLP235 T01220056

More Conditions Fewer Conditions

10-Day Weather Forecast

Almanac

Astronomía

Sep. 22, 2014 Salida Puesta
Hora real 7:03 AM EDT 7:13 PM EDT
Crepúsculo civil 6:35 AM EDT 7:41 PM EDT
Crepúsculo náutico 6:02 AM EDT 8:14 PM EDT
Crepúsculo astronómico 5:28 AM EDT 8:48 PM EDT
Luna 5:29 AM EDT (9/22) 6:21 PM EDT (9/22)
Horas de luz 13h 06m
Horas de luz
12h 09m
Tomorrow will be 2m 52s shorter.
Creciente menguante, 1% of the Moon is Illuminated
Hoy
Creciente menguante
Sep 24
Nueva
Oct 1
Cuarto creciente
Oct 8
Luna llena
Oct 15
Cuarto menguante

Extremos de hoy

Máximos del estado Bajos del estado

Community

WunderPhotos

Upload Photos

1,755,587 ¡fotos cargadas!

Nearby

Calidad del aire

  Calidad del aire Índice AQ Contaminante
Ayer Buena
OZONE
Ayer Buena
PM2.5
Real Buena
PM2.5
Real Buena
OZONE
Lunes Buena
OZONE
Lunes Buena
PM2.5
Martes Buena
PM2.5
Martes Buena
OZONE

Grosos de nieve

Estación Profundido Altura
No tenemos constancia de nieve nueva.

Actividad de terremotos

Ciudad Distance Mag. Tiempo y dato
No hay informes recientes de la actividad sísmica.
Magnitud mínima muestra es 2,5.

Temperaturas de aguas costeras

Lugar Temperatura
Buffalo, NY 64.9 ° F

Estaciones meteorológicas cercanas